Hauptseite
METAR-TAF:

METAR-TAF

Flughäfen :

Flughafen Niamey

Niamey, Niger

Breite: 13-29N, Länge: 002-10E, Höhe: 223 m

Beobachtung

Neuester Wetterbericht von vor 49 Minuten, um 07:00 UTC
Wind 11 kt aus Südwest
Temperatur 30°C
Luftfeuchtigkeit 52%
Luftdruck 1012 hPa
Sichtweite 10 km oder mehr
keine Wolken unter 1500 m und keine Kumulonimbus oder Gewitterwolken

METAR: DRRN 270700Z 22011KT CAVOK 30/19 Q1012 NOSIG

Zeit: 08:49 (07:49 UTC)

Prognose

Neuester Wetterbericht von vor 2 Stunden und 49 Minuten, um 05:00 UTC
Gültige Prognose vom 27 um 06 UTC bis 28 um 12 UTC
Wind 10 kt aus Südwest
Sichtweite: 8000 m
Wahrscheinlichkeit 40% :
Zeitweise
vom 27 um 16 UTC bis 27 um 20 UTC
Aufgelockert bewölkt in der Höhe von 3300 ft
Leicht bewölkt in der Höhe von 4000 ft, Kumulonimbus.
Gewitter

TAF: DRRN 270500Z 2706/2812 22010KT 8000 NSC PROB40 TEMPO 2716/2720 TS SCT033 FEW040CB

Wetterbeobachtungen und Prognosen von mehr als 4000 Flughäfen (METAR und TAF Bericht).

Die verfügbaren Stationen werden durch gelbe und rote Markierungen auf der Karte dargestellt.

Führen Sie die Maus auf sie, um den Namen der Station zu sehen.

Darauf klicken, um die Beobachtung von Wetterbeobachtungen und Prognosen zu sehen.

Um die Karte zu ändern : klicken Sie auf den grünen Tasten mit einem schwarzen Kreuz Zum Vergrößern, auf den grünen Button mit einem Gedankenstrich zu verkleinern, oder auf die grünen Pfeile für benachbarte Karten.


METAR-TAF: